Time;durP1;ratioP1;P1;durP2;ratioP2;P2;SDS_P1;SDS_P2;PMS_P1;PMS_P2;Temp;Humidity;BMP_temperature;BMP_pressure;BME280_temperature;BME280_humidity;BME280_pressure;Samples;Min_cycle;Max_cycle;Signal;HPM_P1;HPM_P2
2023/01/12 00:02:10;;;;;;;6.18;1.15;;;7.70;99.90;;;;;;5047728;28;20041;-58
2023/01/12 00:04:36;;;;;;;9.23;2.22;;;7.70;99.90;;;;;;5044915;28;20037;-59
2023/01/12 00:07:05;;;;;;;16.57;4.97;;;7.70;99.90;;;;;;5047159;28;20561;-57
2023/01/12 00:09:30;;;;;;;16.52;3.65;;;7.80;99.90;;;;;;5047185;28;20418;-58
2023/01/12 00:11:56;;;;;;;19.43;3.80;;;7.90;99.90;;;;;;5049083;28;20055;-57
2023/01/12 00:14:21;;;;;;;15.40;3.67;;;7.90;99.90;;;;;;5049886;28;20087;-60
2023/01/12 00:16:47;;;;;;;17.08;4.30;;;8.00;99.90;;;;;;5051444;28;20497;-61
2023/01/12 00:19:18;;;;;;;16.03;4.17;;;8.00;99.90;;;;;;5051113;28;20036;-58
2023/01/12 00:21:56;;;;;;;11.38;3.33;;;8.10;99.90;;;;;;5051407;28;20044;-60
2023/01/12 00:24:28;;;;;;;15.43;3.30;;;8.10;99.90;;;;;;5049889;28;20041;-60
2023/01/12 00:26:55;;;;;;;20.98;3.83;;;8.20;99.90;;;;;;5049045;28;20079;-57
2023/01/12 00:29:22;;;;;;;19.15;2.75;;;8.20;99.90;;;;;;5051015;28;20037;-60
2023/01/12 00:31:48;;;;;;;15.25;3.95;;;8.20;99.90;;;;;;5051092;28;20405;-58
2023/01/12 00:34:14;;;;;;;18.98;3.33;;;8.30;99.90;;;;;;5049929;28;20096;-61
2023/01/12 00:36:40;;;;;;;13.88;2.35;;;8.20;99.90;;;;;;5050993;28;20056;-59
2023/01/12 00:39:06;;;;;;;13.38;3.25;;;8.30;99.90;;;;;;5050568;28;20064;-58
2023/01/12 00:47:01;;;;;;;16.65;3.20;;;8.20;99.90;;;;;;5049816;28;20171;-59
2023/01/12 00:49:26;;;;;;;15.90;3.67;;;8.20;99.90;;;;;;5050723;28;20175;-59
2023/01/12 00:51:52;;;;;;;14.83;2.67;;;8.30;99.90;;;;;;5033297;28;20040;-58
2023/01/12 00:54:17;;;;;;;13.90;2.30;;;8.30;99.90;;;;;;5048497;28;20287;-59
2023/01/12 00:56:43;;;;;;;16.37;4.60;;;8.30;99.90;;;;;;5050414;28;20029;-58
2023/01/12 00:59:08;;;;;;;13.13;3.57;;;8.30;99.90;;;;;;5049746;28;20029;-59
2023/01/12 01:01:34;;;;;;;10.90;2.50;;;8.30;99.90;;;;;;5049298;28;20080;-58
2023/01/12 01:04:00;;;;;;;12.27;3.33;;;8.30;99.90;;;;;;5049226;28;20040;-59
2023/01/12 01:06:26;;;;;;;18.38;3.22;;;8.30;99.90;;;;;;5050005;28;20048;-58
2023/01/12 01:08:52;;;;;;;9.88;3.25;;;8.30;99.90;;;;;;5050455;28;20048;-57
2023/01/12 01:11:18;;;;;;;13.57;2.45;;;8.30;99.90;;;;;;5049875;28;20029;-57
2023/01/12 01:13:43;;;;;;;11.68;3.05;;;8.30;99.90;;;;;;5049515;28;20106;-57
2023/01/12 01:16:12;;;;;;;10.57;2.75;;;8.30;99.90;;;;;;5049180;28;20391;-59
2023/01/12 01:18:38;;;;;;;18.70;3.60;;;8.30;99.90;;;;;;5047969;28;20039;-58
2023/01/12 01:21:04;;;;;;;18.77;5.30;;;8.40;99.90;;;;;;5049878;28;20033;-57
2023/01/12 01:23:33;;;;;;;17.42;3.17;;;8.40;99.90;;;;;;5049337;28;20087;-58
2023/01/12 01:26:07;;;;;;;16.50;3.88;;;8.40;99.90;;;;;;5047049;28;20128;-61
2023/01/12 01:28:34;;;;;;;16.67;4.25;;;8.40;99.90;;;;;;5049538;28;20029;-61
2023/01/12 01:31:20;;;;;;;19.85;3.75;;;8.40;99.90;;;;;;5050699;28;20379;-58
2023/01/12 01:33:46;;;;;;;14.18;3.40;;;8.40;99.90;;;;;;5049215;28;20036;-59
2023/01/12 01:36:13;;;;;;;17.88;3.92;;;8.40;99.90;;;;;;5049610;28;20445;-58
2023/01/12 01:38:39;;;;;;;18.60;3.63;;;8.40;99.90;;;;;;5049598;28;20040;-57
2023/01/12 01:41:06;;;;;;;17.23;4.13;;;8.50;99.90;;;;;;5049395;28;20099;-58
2023/01/12 01:43:55;;;;;;;17.98;4.93;;;8.50;99.90;;;;;;5049023;28;20063;-61
2023/01/12 01:46:35;;;;;;;12.07;3.90;;;8.50;99.90;;;;;;5047552;28;20037;-60
2023/01/12 01:49:12;;;;;;;21.80;5.35;;;8.40;99.90;;;;;;5047766;28;20033;-58
2023/01/12 01:51:38;;;;;;;16.55;3.55;;;8.40;99.90;;;;;;5049623;28;20504;-61
2023/01/12 01:54:04;;;;;;;17.37;4.93;;;8.40;99.90;;;;;;5048911;28;20117;-57
2023/01/12 01:56:32;;;;;;;15.23;4.07;;;8.40;99.90;;;;;;5049378;28;20037;-59
2023/01/12 01:59:08;;;;;;;23.00;4.78;;;8.30;99.90;;;;;;5049296;28;20298;-60
2023/01/12 02:01:35;;;;;;;20.65;5.70;;;8.40;99.90;;;;;;5049501;28;20425;-59
2023/01/12 02:04:01;;;;;;;15.40;3.90;;;8.30;99.90;;;;;;5048932;28;20064;-59
2023/01/12 02:06:28;;;;;;;18.17;5.47;;;8.30;99.90;;;;;;5048917;28;20025;-60
2023/01/12 02:08:57;;;;;;;18.98;5.20;;;8.30;99.90;;;;;;5047432;28;20106;-58
2023/01/12 02:17:21;;;;;;;14.20;4.63;;;8.30;99.90;;;;;;5049237;28;20045;-57
2023/01/12 02:20:01;;;;;;;12.38;5.07;;;8.30;99.90;;;;;;5049775;28;20052;-58
2023/01/12 02:22:43;;;;;;;12.77;4.45;;;8.30;99.90;;;;;;5049281;28;20498;-60
2023/01/12 02:25:29;;;;;;;15.18;4.30;;;8.30;99.90;;;;;;5047691;28;20040;-58
2023/01/12 02:28:26;;;;;;;11.65;5.40;;;8.30;99.90;;;;;;5049099;28;20041;-58
2023/01/12 02:31:22;;;;;;;16.40;5.18;;;8.30;99.90;;;;;;5048960;28;20048;-60
2023/01/12 02:34:08;;;;;;;17.25;5.55;;;8.30;99.90;;;;;;5048203;28;20045;-58
2023/01/12 02:37:12;;;;;;;13.60;5.77;;;8.30;99.90;;;;;;5048837;28;20037;-57
2023/01/12 02:39:43;;;;;;;15.93;5.75;;;8.30;99.90;;;;;;5048848;28;20087;-58
2023/01/12 02:42:40;;;;;;;13.93;4.97;;;8.30;99.90;;;;;;5049194;28;20044;-60
2023/01/12 02:45:20;;;;;;;19.20;8.02;;;8.30;99.90;;;;;;5046415;28;20040;-59
2023/01/12 02:47:50;;;;;;;17.38;5.00;;;8.30;99.90;;;;;;5048005;28;20494;-58
2023/01/12 02:50:41;;;;;;;18.45;6.18;;;8.30;99.90;;;;;;5048708;28;20098;-61
2023/01/12 02:53:18;;;;;;;16.67;4.80;;;8.30;99.90;;;;;;5047888;28;20075;-58
2023/01/12 02:55:45;;;;;;;16.52;6.15;;;8.30;99.90;;;;;;5048123;28;20044;-58
2023/01/12 02:58:15;;;;;;;23.38;6.03;;;8.30;99.90;;;;;;5048004;28;20483;-58
2023/01/12 03:00:44;;;;;;;16.05;6.07;;;8.30;99.90;;;;;;5048771;28;20032;-58
2023/01/12 03:03:10;;;;;;;18.67;6.43;;;8.30;99.90;;;;;;5048154;28;20086;-58
2023/01/12 03:05:40;;;;;;;12.57;4.80;;;8.40;99.90;;;;;;5047511;28;20047;-60
2023/01/12 03:08:08;;;;;;;16.10;6.45;;;8.30;99.90;;;;;;5048205;28;20453;-57
2023/01/12 03:10:39;;;;;;;19.33;7.15;;;8.40;99.90;;;;;;5046967;28;20073;-62
2023/01/12 03:13:09;;;;;;;14.85;6.97;;;8.40;99.90;;;;;;5047894;28;20043;-58
2023/01/12 03:15:38;;;;;;;17.55;7.30;;;8.40;99.90;;;;;;5047808;28;20040;-58
2023/01/12 03:18:17;;;;;;;18.52;7.82;;;8.40;99.90;;;;;;5047870;28;20486;-60
2023/01/12 03:20:57;;;;;;;19.73;6.85;;;8.40;99.90;;;;;;5047413;28;20039;-59
2023/01/12 03:23:32;;;;;;;21.42;6.32;;;8.40;99.90;;;;;;5047943;28;20037;-59
2023/01/12 03:26:01;;;;;;;16.33;5.47;;;8.40;99.90;;;;;;5047441;28;20032;-61
2023/01/12 03:28:33;;;;;;;13.57;6.40;;;8.40;99.90;;;;;;5046516;28;20041;-60
2023/01/12 03:31:09;;;;;;;13.50;6.40;;;8.40;99.90;;;;;;5048365;28;20033;-61
2023/01/12 03:33:39;;;;;;;15.82;6.05;;;8.40;99.90;;;;;;5046936;28;20052;-57
2023/01/12 03:36:15;;;;;;;10.93;5.22;;;8.40;99.90;;;;;;5046527;28;20032;-60
2023/01/12 03:39:02;;;;;;;12.77;5.00;;;8.40;99.90;;;;;;5044635;28;20049;-56
2023/01/12 03:41:33;;;;;;;14.90;5.00;;;8.40;99.90;;;;;;5045803;28;20041;-61
2023/01/12 03:44:03;;;;;;;16.48;5.25;;;8.50;99.90;;;;;;5046968;28;20041;-60
2023/01/12 03:46:43;;;;;;;10.55;4.93;;;8.50;99.90;;;;;;5051331;28;20124;-58
2023/01/12 03:49:22;;;;;;;11.65;4.90;;;8.50;99.90;;;;;;5051591;28;20391;-60
2023/01/12 03:51:49;;;;;;;11.43;3.55;;;8.50;99.90;;;;;;5052094;28;20036;-60
2023/01/12 03:54:16;;;;;;;8.48;4.80;;;8.60;99.90;;;;;;5050775;28;20036;-60
2023/01/12 03:56:44;;;;;;;7.18;3.45;;;8.60;99.90;;;;;;5051975;28;20044;-58
2023/01/12 03:59:10;;;;;;;11.13;4.68;;;8.60;99.90;;;;;;5051437;28;20072;-60
2023/01/12 04:01:36;;;;;;;6.72;2.28;;;8.60;99.90;;;;;;5052149;28;20045;-59
2023/01/12 04:04:02;;;;;;;11.57;3.25;;;8.70;99.90;;;;;;5050681;28;20532;-60
2023/01/12 04:06:27;;;;;;;7.13;2.42;;;8.70;99.90;;;;;;5051471;28;20037;-59
2023/01/12 04:08:53;;;;;;;12.97;2.80;;;8.70;99.90;;;;;;5050887;28;20055;-60
2023/01/12 04:14:03;;;;;;;5.65;2.30;;;8.70;99.90;;;;;;5051491;28;20175;-57
2023/01/12 04:16:29;;;;;;;8.40;1.73;;;8.70;99.90;;;;;;5051173;28;20041;-57
2023/01/12 04:18:54;;;;;;;10.53;2.50;;;8.70;99.90;;;;;;5051287;28;20049;-58
2023/01/12 04:24:04;;;;;;;6.47;1.83;;;8.70;99.90;;;;;;5050839;28;20041;-61
2023/01/12 04:26:30;;;;;;;6.47;1.48;;;8.70;99.90;;;;;;5051172;28;20036;-58
2023/01/12 04:28:55;;;;;;;7.63;1.33;;;8.70;99.90;;;;;;5051199;28;20111;-58
2023/01/12 04:31:21;;;;;;;4.90;1.10;;;8.70;99.90;;;;;;5051326;28;20047;-59
2023/01/12 04:33:46;;;;;;;4.40;0.67;;;8.70;99.90;;;;;;5050658;28;20067;-60
2023/01/12 04:36:12;;;;;;;3.70;1.23;;;8.70;99.90;;;;;;5050942;28;20036;-58
2023/01/12 04:38:39;;;;;;;12.57;1.30;;;8.70;99.90;;;;;;5051272;28;20039;-59
2023/01/12 04:41:06;;;;;;;7.40;0.95;;;8.70;99.90;;;;;;5051285;28;20044;-57
2023/01/12 04:43:32;;;;;;;4.22;0.82;;;8.70;99.90;;;;;;5050055;28;20044;-59
2023/01/12 04:45:57;;;;;;;4.50;1.23;;;8.70;99.90;;;;;;5050739;28;20402;-57
2023/01/12 04:48:23;;;;;;;4.30;1.50;;;8.70;99.90;;;;;;5050826;28;20036;-59
2023/01/12 04:50:49;;;;;;;5.17;1.10;;;8.70;99.90;;;;;;5050647;28;20045;-57
2023/01/12 04:53:15;;;;;;;5.65;1.00;;;8.70;99.90;;;;;;5048944;28;20032;-60
2023/01/12 04:55:42;;;;;;;7.15;1.58;;;8.70;99.90;;;;;;5049995;28;20379;-60
2023/01/12 04:58:08;;;;;;;6.40;0.98;;;8.70;99.90;;;;;;5050491;28;20071;-60
2023/01/12 05:00:35;;;;;;;6.47;1.52;;;8.70;99.90;;;;;;5050555;28;20048;-58
2023/01/12 05:03:01;;;;;;;7.22;0.68;;;8.60;99.90;;;;;;5049911;28;20490;-59
2023/01/12 05:05:29;;;;;;;3.38;0.73;;;8.70;99.90;;;;;;5050008;28;20075;-59
2023/01/12 05:10:41;;;;;;;2.43;1.13;;;8.60;99.90;;;;;;5050751;28;20053;-57
2023/01/12 05:13:06;;;;;;;5.70;0.80;;;8.70;99.90;;;;;;5049993;28;20287;-60
2023/01/12 05:15:32;;;;;;;8.20;1.17;;;8.70;99.90;;;;;;5050184;28;20135;-59
2023/01/12 05:17:58;;;;;;;6.90;1.10;;;8.70;99.90;;;;;;5049957;28;20049;-59
2023/01/12 05:20:23;;;;;;;3.70;1.20;;;8.70;99.90;;;;;;5050846;28;20021;-60
2023/01/12 05:22:50;;;;;;;3.17;0.80;;;8.70;99.90;;;;;;5050521;28;20072;-58
2023/01/12 05:25:15;;;;;;;3.95;0.77;;;8.60;99.90;;;;;;5048959;28;20041;-60
2023/01/12 05:27:41;;;;;;;4.80;0.80;;;8.60;99.90;;;;;;5050123;28;20037;-60
2023/01/12 05:30:07;;;;;;;5.47;1.00;;;8.60;99.90;;;;;;5049699;28;20719;-59
2023/01/12 05:32:37;;;;;;;4.18;0.75;;;8.60;99.90;;;;;;5050297;28;20083;-58
2023/01/12 05:35:05;;;;;;;5.15;0.85;;;8.60;99.90;;;;;;5049141;28;20037;-58
2023/01/12 05:37:31;;;;;;;3.53;0.70;;;8.60;99.90;;;;;;5049512;28;20115;-60
2023/01/12 05:39:56;;;;;;;4.37;0.80;;;8.60;99.90;;;;;;5050203;28;20121;-58
2023/01/12 05:45:07;;;;;;;4.28;0.70;;;8.60;99.90;;;;;;5048800;28;20044;-58
2023/01/12 05:47:36;;;;;;;3.20;0.50;;;8.60;99.90;;;;;;5049386;28;20037;-59
2023/01/12 05:50:02;;;;;;;4.18;0.55;;;8.60;99.90;;;;;;5049702;28;20045;-59
2023/01/12 05:52:30;;;;;;;3.25;0.65;;;8.70;99.90;;;;;;5049532;28;20517;-59
2023/01/12 05:54:56;;;;;;;5.73;1.10;;;8.60;99.90;;;;;;5047935;28;20124;-57
2023/01/12 05:57:22;;;;;;;9.80;1.83;;;8.60;99.90;;;;;;5047002;28;20498;-58
2023/01/12 05:59:47;;;;;;;6.45;1.40;;;8.70;99.90;;;;;;5049510;28;20051;-57
2023/01/12 06:02:16;;;;;;;1.97;1.03;;;8.60;99.90;;;;;;5049595;28;20136;-59
2023/01/12 06:04:42;;;;;;;6.40;1.05;;;8.70;99.90;;;;;;5048499;28;20068;-58
2023/01/12 06:07:11;;;;;;;5.05;0.77;;;8.70;99.90;;;;;;5049095;28;20091;-59
2023/01/12 06:09:37;;;;;;;2.65;0.40;;;8.70;99.90;;;;;;5049619;28;20529;-60
2023/01/12 06:14:47;;;;;;;4.40;0.60;;;8.70;99.90;;;;;;5048159;28;20540;-58
2023/01/12 06:17:12;;;;;;;4.70;1.03;;;8.70;99.90;;;;;;5049171;28;20041;-59
2023/01/12 06:19:38;;;;;;;4.90;0.60;;;8.60;99.90;;;;;;5049073;28;20037;-61
2023/01/12 06:22:06;;;;;;;2.37;0.80;;;8.70;99.90;;;;;;5049162;28;20133;-61
2023/01/12 06:24:32;;;;;;;4.68;1.42;;;8.70;99.90;;;;;;5047793;28;20547;-61
2023/01/12 06:26:57;;;;;;;4.37;0.97;;;8.70;99.90;;;;;;5048899;28;20111;-57
2023/01/12 06:29:23;;;;;;;10.57;0.70;;;8.70;99.90;;;;;;5049261;28;20044;-58
2023/01/12 06:31:49;;;;;;;4.93;0.97;;;8.60;99.90;;;;;;5049312;28;20291;-60
2023/01/12 06:34:14;;;;;;;5.67;1.07;;;8.70;99.90;;;;;;5048172;28;20044;-60
2023/01/12 06:36:40;;;;;;;5.93;1.10;;;8.70;99.90;;;;;;5049584;28;20048;-59
2023/01/12 06:39:05;;;;;;;4.73;0.43;;;8.60;99.90;;;;;;5048174;28;20052;-60
2023/01/12 06:44:17;;;;;;;4.05;0.43;;;8.70;99.90;;;;;;5048135;28;20487;-60
2023/01/12 06:46:42;;;;;;;4.38;0.88;;;8.70;99.90;;;;;;5048412;28;20068;-59
2023/01/12 06:49:08;;;;;;;2.67;0.43;;;8.70;99.90;;;;;;5048241;28;20037;-59
2023/01/12 06:51:34;;;;;;;3.33;1.00;;;8.70;99.90;;;;;;5047059;28;20037;-59
2023/01/12 06:54:00;;;;;;;5.50;1.17;;;8.70;99.90;;;;;;5045180;28;20029;-60
2023/01/12 06:56:25;;;;;;;2.05;1.02;;;8.70;99.90;;;;;;5048098;28;20043;-60
2023/01/12 06:58:51;;;;;;;4.23;0.50;;;8.80;99.90;;;;;;5045364;28;20033;-59
2023/01/12 07:01:17;;;;;;;1.37;0.37;;;8.70;99.90;;;;;;5048551;28;20114;-60
2023/01/12 07:03:43;;;;;;;3.83;0.47;;;8.80;99.90;;;;;;5048020;28;20410;-58
2023/01/12 07:06:08;;;;;;;5.68;1.05;;;8.80;99.90;;;;;;5047948;28;20040;-58
2023/01/12 07:08:34;;;;;;;3.50;1.00;;;8.90;99.90;;;;;;5048053;28;20041;-57
2023/01/12 07:11:06;;;;;;;3.72;0.60;;;8.90;99.90;;;;;;5048250;28;20036;-59
2023/01/12 07:13:32;;;;;;;5.30;0.93;;;8.90;99.90;;;;;;5047705;28;20492;-57
2023/01/12 07:15:59;;;;;;;1.92;0.50;;;8.90;99.90;;;;;;5047978;28;20052;-57
2023/01/12 07:18:26;;;;;;;2.38;0.63;;;9.00;99.90;;;;;;5044833;28;20162;-60
2023/01/12 07:20:51;;;;;;;;;;;9.00;99.90;;;;;;5048345;28;20523;-61
2023/01/12 07:23:17;;;;;;;2.13;0.50;;;9.00;99.90;;;;;;5049359;28;19924;-60
2023/01/12 07:25:43;;;;;;;2.43;0.40;;;9.10;99.90;;;;;;5051009;28;20496;-58
2023/01/12 07:28:08;;;;;;;1.70;0.53;;;9.10;99.90;;;;;;5051345;28;20083;-59
2023/01/12 07:30:34;;;;;;;2.70;0.40;;;9.10;99.90;;;;;;5052329;28;20037;-57
2023/01/12 07:33:11;;;;;;;2.13;0.40;;;9.10;99.90;;;;;;5051213;28;20294;-60
2023/01/12 07:35:37;;;;;;;;;;;9.10;99.90;;;;;;5051496;28;20047;-59
2023/01/12 07:38:02;;;;;;;0.57;0.40;;;9.10;99.90;;;;;;5051845;28;19925;-57
2023/01/12 07:40:28;;;;;;;2.22;0.43;;;9.10;99.90;;;;;;5052386;28;20041;-60
2023/01/12 07:43:04;;;;;;;1.77;0.70;;;9.10;99.90;;;;;;5051090;28;20410;-56
2023/01/12 07:45:32;;;;;;;2.47;0.50;;;9.10;99.90;;;;;;5050681;28;20142;-61
2023/01/12 07:47:57;;;;;;;0.93;0.40;;;9.10;99.90;;;;;;5048654;28;20083;-57
2023/01/12 07:50:25;;;;;;;1.85;0.40;;;9.10;99.90;;;;;;5052910;28;20045;-58
2023/01/12 07:52:51;;;;;;;0.77;0.30;;;9.10;99.90;;;;;;5048383;28;20037;-59
2023/01/12 07:55:18;;;;;;;2.55;0.90;;;9.10;99.90;;;;;;5051544;28;20457;-57
2023/01/12 07:57:53;;;;;;;3.33;0.63;;;9.20;99.90;;;;;;5049935;28;20041;-58
2023/01/12 08:00:22;;;;;;;1.60;0.60;;;9.10;99.90;;;;;;5051548;28;20048;-57
2023/01/12 08:02:48;;;;;;;1.75;0.60;;;9.20;99.90;;;;;;5052030;28;20410;-57
2023/01/12 08:05:14;;;;;;;2.47;0.68;;;9.20;99.90;;;;;;5051213;28;20048;-56
2023/01/12 08:07:40;;;;;;;1.63;0.67;;;9.20;99.90;;;;;;5050933;28;20043;-61
2023/01/12 08:10:06;;;;;;;3.03;0.60;;;9.20;99.90;;;;;;5051595;28;20095;-61
2023/01/12 08:12:31;;;;;;;2.85;0.63;;;9.20;99.90;;;;;;5050933;28;20408;-61
2023/01/12 08:14:57;;;;;;;1.90;0.83;;;9.20;99.90;;;;;;5050320;28;20112;-58
2023/01/12 08:17:23;;;;;;;1.23;0.60;;;9.20;99.90;;;;;;5051467;28;20474;-59
2023/01/12 08:20:01;;;;;;;1.70;0.80;;;9.20;99.90;;;;;;5051977;28;20302;-59
2023/01/12 08:22:33;;;;;;;1.33;0.77;;;9.20;99.90;;;;;;5051011;28;20143;-60
2023/01/12 08:25:05;;;;;;;1.35;0.70;;;9.20;99.90;;;;;;5049908;28;20033;-58
2023/01/12 08:27:32;;;;;;;1.52;0.80;;;9.20;99.90;;;;;;5050744;28;20045;-59
2023/01/12 08:29:58;;;;;;;1.80;1.10;;;9.30;99.90;;;;;;5049010;28;20051;-60
2023/01/12 08:32:26;;;;;;;1.80;1.30;;;9.30;99.90;;;;;;5050259;28;20036;-58
2023/01/12 08:34:55;;;;;;;0.93;0.60;;;9.30;99.90;;;;;;5048219;28;20318;-60
2023/01/12 08:37:23;;;;;;;2.83;1.30;;;9.30;99.90;;;;;;5049798;28;20041;-59
2023/01/12 08:39:50;;;;;;;2.45;0.90;;;9.40;99.90;;;;;;5048719;28;20056;-57
2023/01/12 08:42:15;;;;;;;1.33;0.90;;;9.40;99.90;;;;;;5050740;28;20215;-59
2023/01/12 08:44:41;;;;;;;2.53;1.33;;;9.40;99.90;;;;;;5047937;28;20469;-62
2023/01/12 08:47:19;;;;;;;1.10;1.00;;;9.50;99.90;;;;;;5049911;28;20349;-60
2023/01/12 08:49:45;;;;;;;1.77;1.45;;;9.50;99.90;;;;;;5049685;28;20155;-58
2023/01/12 08:52:12;;;;;;;1.85;0.98;;;9.50;99.90;;;;;;5050361;28;20032;-61
2023/01/12 08:54:37;;;;;;;0.98;0.85;;;9.50;99.90;;;;;;5049247;28;20088;-59
2023/01/12 08:57:03;;;;;;;1.23;1.13;;;9.60;99.90;;;;;;5048981;28;20032;-59
2023/01/12 08:59:29;;;;;;;0.70;0.60;;;9.60;99.90;;;;;;5050645;28;20075;-60
2023/01/12 09:01:55;;;;;;;1.85;0.98;;;9.60;99.90;;;;;;5050306;28;20115;-62
2023/01/12 09:04:20;;;;;;;1.88;0.52;;;9.70;99.90;;;;;;5049042;28;20045;-61
2023/01/12 09:06:47;;;;;;;1.70;0.45;;;9.70;99.90;;;;;;5049287;28;20593;-61
2023/01/12 09:09:15;;;;;;;0.70;0.40;;;9.70;99.90;;;;;;5049513;28;20049;-58
2023/01/12 09:11:42;;;;;;;1.73;0.40;;;9.70;99.90;;;;;;5047271;28;20466;-61
2023/01/12 09:14:09;;;;;;;1.80;0.40;;;9.80;99.90;;;;;;5048696;28;20032;-58
2023/01/12 09:16:34;;;;;;;0.68;0.40;;;9.80;99.90;;;;;;5049914;28;20036;-59
2023/01/12 09:19:00;;;;;;;0.98;0.38;;;9.90;99.90;;;;;;5049448;28;20036;-59
2023/01/12 09:21:27;;;;;;;2.90;0.40;;;9.90;99.90;;;;;;5049789;28;20040;-59
2023/01/12 09:23:53;;;;;;;1.35;0.77;;;9.90;99.90;;;;;;5048711;28;20045;-60
2023/01/12 09:26:22;;;;;;;3.25;0.85;;;10.00;99.90;;;;;;5048814;28;20498;-61
2023/01/12 09:28:48;;;;;;;5.55;1.00;;;10.00;99.90;;;;;;5049479;28;20037;-61
2023/01/12 09:31:15;;;;;;;;;;;10.00;99.90;;;;;;5048879;28;20029;-60
2023/01/12 09:33:42;;;;;;;4.75;1.35;;;10.10;99.90;;;;;;5050634;28;19979;-60
2023/01/12 09:36:14;;;;;;;5.40;1.30;;;10.10;99.90;;;;;;5050002;28;20039;-60
2023/01/12 09:38:41;;;;;;;9.27;1.45;;;10.20;99.90;;;;;;5051127;28;20041;-58
2023/01/12 09:41:11;;;;;;;6.63;1.20;;;10.20;99.90;;;;;;5050680;28;20037;-61
2023/01/12 09:49:21;;;;;;;8.65;1.65;;;10.30;99.90;;;;;;5050923;28;20053;-60
2023/01/12 09:51:55;;;;;;;7.93;1.58;;;10.40;99.90;;;;;;5050954;28;20417;-59
2023/01/12 09:54:20;;;;;;;16.83;2.38;;;10.40;99.90;;;;;;5049997;28;20116;-61
2023/01/12 09:56:56;;;;;;;11.55;1.95;;;10.40;99.90;;;;;;5051062;28;20116;-62
2023/01/12 09:59:27;;;;;;;13.95;2.20;;;10.50;99.90;;;;;;5051126;28;20044;-60
2023/01/12 10:01:52;;;;;;;13.23;2.75;;;10.50;99.90;;;;;;5050778;28;20128;-58
2023/01/12 10:04:19;;;;;;;14.52;1.85;;;10.50;99.90;;;;;;5050180;28;20116;-61
2023/01/12 10:06:44;;;;;;;14.85;3.03;;;10.50;99.90;;;;;;5050616;28;20047;-60
2023/01/12 10:09:20;;;;;;;9.80;2.53;;;10.60;99.90;;;;;;5050358;28;20037;-57
2023/01/12 10:11:53;;;;;;;15.63;2.45;;;10.60;99.90;;;;;;5050442;28;20370;-58
2023/01/12 10:14:31;;;;;;;16.15;2.58;;;10.60;99.90;;;;;;5048367;28;20116;-61
2023/01/12 10:17:24;;;;;;;14.77;2.20;;;10.60;99.90;;;;;;5050365;28;20049;-59
2023/01/12 10:20:10;;;;;;;12.90;1.90;;;10.60;99.90;;;;;;5049757;28;20041;-61
2023/01/12 10:22:53;;;;;;;12.75;1.98;;;10.70;99.90;;;;;;5050572;28;20053;-60
2023/01/12 10:25:43;;;;;;;10.57;2.30;;;10.70;99.90;;;;;;5049756;28;20052;-60
2023/01/12 10:28:45;;;;;;;27.00;3.83;;;10.80;99.90;;;;;;5049232;28;20052;-58
2023/01/12 10:31:18;;;;;;;22.15;3.33;;;10.80;99.90;;;;;;4988431;28;20054;-58
2023/01/12 10:34:07;;;;;;;17.38;2.67;;;10.80;99.90;;;;;;5022991;28;20060;-58
2023/01/12 10:36:41;;;;;;;15.02;1.85;;;10.80;99.90;;;;;;5029622;28;20069;-61
2023/01/12 10:39:32;;;;;;;14.68;2.13;;;10.90;99.90;;;;;;5030281;28;20050;-60
2023/01/12 10:45:12;;;;;;;10.38;1.60;;;10.90;99.90;;;;;;5029224;28;20050;-60
2023/01/12 10:47:38;;;;;;;14.77;1.80;;;10.90;99.90;;;;;;5029747;28;20131;-61
2023/01/12 10:50:27;;;;;;;16.83;1.17;;;10.90;99.90;;;;;;5030213;28;20076;-60
2023/01/12 10:53:14;;;;;;;17.65;2.95;;;10.90;99.90;;;;;;5028372;28;20316;-61
2023/01/12 10:55:41;;;;;;;14.52;2.08;;;10.90;99.90;;;;;;5029361;28;20562;-60
2023/01/12 10:58:25;;;;;;;15.60;2.05;;;10.90;99.90;;;;;;5029664;28;20133;-59
2023/01/12 11:00:52;;;;;;;19.40;3.05;;;10.90;99.90;;;;;;5030078;28;20076;-59
2023/01/12 11:03:36;;;;;;;20.85;2.90;;;10.90;99.90;;;;;;5029043;28;20502;-60
2023/01/12 11:06:20;;;;;;;15.32;2.53;;;11.00;99.90;;;;;;5029871;28;20045;-59
2023/01/12 11:08:45;;;;;;;18.35;2.88;;;11.00;99.90;;;;;;5029321;28;20057;-58
2023/01/12 11:11:30;;;;;;;16.53;3.87;;;11.00;99.90;;;;;;5030362;28;20037;-58
2023/01/12 11:13:59;;;;;;;12.35;2.53;;;11.00;99.90;;;;;;5028721;28;20033;-60
2023/01/12 11:16:30;;;;;;;14.77;2.75;;;11.00;99.90;;;;;;5029564;28;20065;-61
2023/01/12 11:19:05;;;;;;;15.45;3.50;;;11.00;99.90;;;;;;5029571;28;20053;-58
2023/01/12 11:21:35;;;;;;;16.42;2.53;;;11.00;99.90;;;;;;5038584;28;20043;-61
2023/01/12 11:24:28;;;;;;;17.83;2.65;;;11.00;99.90;;;;;;5048687;28;20044;-59
2023/01/12 11:27:20;;;;;;;27.00;3.92;;;11.00;99.90;;;;;;5049466;28;20465;-60
2023/01/12 11:29:50;;;;;;;21.05;4.03;;;11.10;99.90;;;;;;5048922;28;20133;-57
2023/01/12 11:32:24;;;;;;;22.45;4.78;;;11.10;99.90;;;;;;5049361;28;20469;-59
2023/01/12 11:34:59;;;;;;;20.17;3.50;;;11.10;99.90;;;;;;5046496;28;20068;-61
2023/01/12 11:37:25;;;;;;;25.60;3.85;;;11.10;99.90;;;;;;5048275;28;20047;-58
2023/01/12 11:40:00;;;;;;;32.70;4.77;;;11.20;99.90;;;;;;5049006;28;20033;-58
2023/01/12 11:45:36;;;;;;;26.70;4.18;;;11.30;99.90;;;;;;5047364;28;20340;-61
2023/01/12 11:48:26;;;;;;;29.42;4.10;;;11.30;99.90;;;;;;5048676;28;20049;-60
2023/01/12 11:50:53;;;;;;;21.17;4.00;;;11.40;99.90;;;;;;5049108;28;20045;-60
2023/01/12 11:53:20;;;;;;;;;;;11.40;99.90;;;;;;5048120;28;20074;-59
2023/01/12 11:56:19;;;;;;;18.20;2.45;;;11.40;99.90;;;;;;5047195;28;20012;-62
2023/01/12 11:59:06;;;;;;;19.85;4.05;;;11.40;99.90;;;;;;5036825;28;20132;-59
2023/01/12 12:01:56;;;;;;;18.27;2.88;;;11.40;99.90;;;;;;5043795;28;20040;-59
2023/01/12 12:04:29;;;;;;;15.93;3.17;;;11.40;99.90;;;;;;5036379;28;20050;-60
2023/01/12 12:06:57;;;;;;;17.40;3.85;;;11.50;99.90;;;;;;5048941;28;20033;-61
2023/01/12 12:09:42;;;;;;;16.42;2.33;;;11.50;99.90;;;;;;5057178;28;20044;-60
2023/01/12 12:12:38;;;;;;;21.80;4.20;;;11.50;99.90;;;;;;5050264;28;20041;-61
2023/01/12 12:15:19;;;;;;;21.50;2.63;;;11.40;99.90;;;;;;5050304;28;20442;-62
2023/01/12 12:18:13;;;;;;;18.13;3.38;;;11.40;99.90;;;;;;5050462;28;20044;-61
2023/01/12 12:20:57;;;;;;;20.08;3.70;;;11.40;99.90;;;;;;5050139;28;20462;-60
2023/01/12 12:23:35;;;;;;;23.25;3.42;;;11.40;99.90;;;;;;5050608;28;20033;-58
2023/01/12 12:26:20;;;;;;;29.27;4.70;;;11.40;99.90;;;;;;5048660;28;20045;-61
2023/01/12 12:29:19;;;;;;;21.52;4.05;;;11.40;99.90;;;;;;5050184;28;20045;-60
2023/01/12 12:31:51;;;;;;;20.15;4.00;;;11.40;99.90;;;;;;5049610;28;20033;-61
2023/01/12 12:34:26;;;;;;;23.52;3.28;;;11.30;99.90;;;;;;5047476;28;20033;-61
2023/01/12 12:37:20;;;;;;;24.00;4.25;;;11.30;99.90;;;;;;5048154;28;20608;-60
2023/01/12 12:39:48;;;;;;;24.38;3.90;;;11.30;99.90;;;;;;5050456;28;20033;-60
2023/01/12 12:45:47;;;;;;;21.85;4.22;;;11.30;99.90;;;;;;5046754;28;20506;-61
2023/01/12 12:48:36;;;;;;;22.05;3.88;;;11.30;99.90;;;;;;5049991;28;20272;-59
2023/01/12 12:51:05;;;;;;;21.13;3.88;;;11.30;99.90;;;;;;5046742;28;20044;-61
2023/01/12 12:53:44;;;;;;;20.13;4.20;;;11.30;99.90;;;;;;5048866;28;20050;-62
2023/01/12 12:56:15;;;;;;;18.75;3.28;;;11.40;99.90;;;;;;5048746;28;20040;-59
2023/01/12 12:58:44;;;;;;;18.90;3.25;;;11.40;99.90;;;;;;5050016;28;20041;-59
2023/01/12 13:01:18;;;;;;;24.38;3.75;;;11.40;99.90;;;;;;5045323;28;20033;-62
2023/01/12 13:03:48;;;;;;;23.90;3.80;;;11.40;99.90;;;;;;5049186;28;20576;-60
2023/01/12 13:06:21;;;;;;;17.83;2.90;;;11.40;99.90;;;;;;5049340;28;20037;-60
2023/01/12 13:08:53;;;;;;;23.30;3.80;;;11.50;99.90;;;;;;5046158;28;20517;-60
2023/01/12 13:11:20;;;;;;;13.70;2.78;;;11.40;99.90;;;;;;5048247;28;20029;-60
2023/01/12 13:14:04;;;;;;;15.90;2.90;;;11.50;99.90;;;;;;5048957;28;20029;-58
2023/01/12 13:16:30;;;;;;;22.77;2.95;;;11.40;99.90;;;;;;5049491;28;20037;-62
2023/01/12 13:18:56;;;;;;;16.23;3.30;;;11.50;99.90;;;;;;5048178;28;20056;-61
2023/01/12 13:21:57;;;;;;;15.80;3.10;;;11.40;99.90;;;;;;5048241;28;20082;-59
2023/01/12 13:24:39;;;;;;;14.75;1.48;;;11.40;99.90;;;;;;5048971;28;20036;-62
2023/01/12 13:27:43;;;;;;;11.07;1.38;;;11.40;99.90;;;;;;5046778;28;20091;-60
2023/01/12 13:30:19;;;;;;;11.32;1.58;;;11.40;99.90;;;;;;5040532;28;20048;-61
2023/01/12 13:33:14;;;;;;;8.10;1.30;;;11.30;99.90;;;;;;5045127;28;20631;-62
2023/01/12 13:35:43;;;;;;;11.38;1.38;;;11.30;99.90;;;;;;5043304;28;20514;-62
2023/01/12 13:38:33;;;;;;;10.27;2.47;;;11.30;99.90;;;;;;5045053;28;20052;-57
2023/01/12 13:41:16;;;;;;;9.52;1.25;;;11.30;99.90;;;;;;5045162;28;20328;-59
2023/01/12 13:43:53;;;;;;;12.43;2.05;;;11.30;99.90;;;;;;5042378;28;20071;-60
2023/01/12 13:46:31;;;;;;;7.70;1.50;;;11.30;99.90;;;;;;5044770;28;20520;-59
2023/01/12 13:48:57;;;;;;;6.72;1.52;;;11.30;99.90;;;;;;5043089;28;20044;-61
2023/01/12 13:51:39;;;;;;;5.10;1.42;;;11.20;99.90;;;;;;5043735;28;20049;-58
2023/01/12 13:54:15;;;;;;;10.68;2.03;;;11.20;99.90;;;;;;5038009;28;20025;-59
2023/01/12 13:56:41;;;;;;;5.13;1.05;;;11.20;99.90;;;;;;5044374;28;20091;-61